Terminal Aerodrome Forecast
Issued by NWS

Home | Current Version | Previous Version | Text Only | Print | Product List | Glossary On
Versions: 1 2 3 4 5 6 7 8 9 10 11 12 13
546
FTUS43 KICT 210520
TAFHUT
TAF
KHUT 210520Z 2106/2206 17013KT P6SM SKC
     FM211500 19017G22KT P6SM SKC
     FM212000 19022G26KT P6SM SCT060
     FM220000 18009KT P6SM SCT060=

USA.gov is the U.S. government's official web portal to all federal, state and local government web resources and services.